Accueil
METAR-TAF:

METAR-TAF

Aéroports :

Balikesir, Turquie

latitude: 39-37N, longitude: 027-55E, altitude: 101 m

Observation

Le bulletin a été fait il y a 31 minutes, à 07:17 UTC
Vent 7 kt de nord/nord-est
Température 19°C
Humidité 83%
Pression 1018 hPa
Visibilité 10 km ou plus
Nuages épars à une hauteur de 3000 ft
Nuages épars à une hauteur de 10000 ft
faibles averses de pluie

METAR: LTBF 170717Z 02007KT 9999 -SHRA SCT030 SCT100 19/16 Q1018 NOSIG RMK RWY18 36007KT

Heure: 10:48 (07:48 UTC)

Prévision

Le bulletin a été fait il y a 3 heures et 8 minutes, à 04:40 UTC
Prévision valable du 17 à 06 UTC au 17 à 15 UTC
Vent 8 kt de nord
Visibilité 10 km ou plus
Nuages épars à une hauteur de 3500 ft
Probabilité 30%
du 17 à 12 UTC au 17 à 14 UTC
Nuages fragmentés à une hauteur de 3500 ft
faibles averses de pluie

TAF: LTBF 170440Z 1706/1715 01008KT 9999 SCT035 PROB30 1712/1714 -SHRA BKN035

Observations et prévisions météorologiques de plus de 4000 aéroports (messages METAR et TAF).

Les stations disponibles sont représentées par des disques jaunes et rouges sur la carte.

Passer la souris dessus pour voir le nom de la station.

Cliquer dessus pour voir les observations et prévisions météorologiques.

Pour changer de carte: cliquez sur les boutons verts avec une croix noire pour zoomer, sur le bouton vert avec un tiret pour effectuer un zoom arrière, ou sur les flèches vertes pour les cartes adjacentes.


METAR-TAF: